createdAt,value
2023-04-04T00:00:01.568Z,-0.06
2023-04-04T00:01:01.559Z,-0.10
2023-04-04T00:02:01.566Z,-0.10
2023-04-04T00:03:01.613Z,-0.09
2023-04-04T00:04:01.616Z,-0.07
2023-04-04T00:05:01.611Z,-0.07
2023-04-04T00:06:01.596Z,-0.09
2023-04-04T00:07:01.609Z,-0.12
2023-04-04T00:08:01.605Z,-0.10
2023-04-04T00:09:01.629Z,-0.06
2023-04-04T00:10:01.667Z,-0.15
2023-04-04T00:11:01.626Z,-0.07
2023-04-04T00:12:01.635Z,-0.05
2023-04-04T00:13:01.641Z,-0.15
2023-04-04T00:14:01.649Z,-0.13
2023-04-04T00:15:01.656Z,-0.23
2023-04-04T00:16:01.680Z,-0.20
2023-04-04T00:17:01.668Z,-0.27
2023-04-04T00:18:01.691Z,-0.17
2023-04-04T00:19:01.684Z,-0.27
2023-04-04T00:20:01.690Z,-0.27
2023-04-04T00:21:01.696Z,-0.21
2023-04-04T00:22:01.708Z,-0.26
2023-04-04T00:23:01.707Z,-0.18
2023-04-04T00:24:01.717Z,-0.26
2023-04-04T00:25:01.723Z,-0.26
2023-04-04T00:26:01.731Z,-0.28
2023-04-04T00:27:01.747Z,-0.21
2023-04-04T00:28:01.740Z,-0.27
2023-04-04T00:29:01.752Z,-0.28
2023-04-04T00:30:01.766Z,-0.30
2023-04-04T00:31:01.802Z,-0.27
2023-04-04T00:32:01.818Z,-0.27
2023-04-04T00:33:01.898Z,-0.24
2023-04-04T00:34:01.790Z,-0.31
2023-04-04T00:35:01.812Z,-0.26
2023-04-04T00:36:01.804Z,-0.26
2023-04-04T00:37:01.803Z,-0.30
2023-04-04T00:38:01.813Z,-0.28
2023-04-04T00:39:01.839Z,-0.33
2023-04-04T00:40:01.867Z,-0.27
2023-04-04T00:41:01.831Z,-0.42
2023-04-04T00:42:01.877Z,-0.33
2023-04-04T00:43:01.850Z,-0.31
2023-04-04T00:44:01.855Z,-0.33
2023-04-04T00:45:01.870Z,-0.28
2023-04-04T00:46:02.030Z,-0.24
2023-04-04T00:47:01.872Z,-0.24
2023-04-04T00:48:01.931Z,-0.33
2023-04-04T00:49:01.892Z,-0.33
2023-04-04T00:50:01.895Z,-0.41
2023-04-04T00:51:01.900Z,-0.35
2023-04-04T00:52:01.907Z,-0.31
2023-04-04T00:53:01.933Z,-0.33
2023-04-04T00:54:01.922Z,-0.30
2023-04-04T00:55:01.937Z,-0.33
2023-04-04T00:56:01.944Z,-0.35
2023-04-04T00:57:01.947Z,-0.35
2023-04-04T00:58:01.947Z,-0.30
2023-04-04T00:59:01.978Z,-0.31
2023-04-04T01:00:01.963Z,-0.26
2023-04-04T01:01:02.044Z,-0.35
2023-04-04T01:02:01.978Z,-0.36
2023-04-04T01:03:02.030Z,-0.39
2023-04-04T01:04:02.025Z,-0.42
2023-04-04T01:05:01.998Z,-0.42
2023-04-04T01:06:02.001Z,-0.41
2023-04-04T01:07:02.008Z,-0.41
2023-04-04T01:08:02.016Z,-0.57
2023-04-04T01:09:02.017Z,-0.44
2023-04-04T01:10:02.024Z,-0.59
2023-04-04T01:11:02.030Z,-0.48
2023-04-04T01:12:02.037Z,-0.48
2023-04-04T01:13:02.044Z,-0.46
2023-04-04T01:14:02.059Z,-0.62
2023-04-04T01:15:02.092Z,-0.60
2023-04-04T01:16:02.069Z,-0.57
2023-04-04T01:17:02.077Z,-0.51
2023-04-04T01:18:02.130Z,-0.53
2023-04-04T01:19:02.082Z,-0.57
2023-04-04T01:20:02.092Z,-0.60
2023-04-04T01:21:02.118Z,-0.62
2023-04-04T01:22:02.107Z,-0.69
2023-04-04T01:23:02.106Z,-0.66
2023-04-04T01:24:02.132Z,-0.66
2023-04-04T01:25:02.123Z,-0.70
2023-04-04T01:26:02.166Z,-0.78
2023-04-04T01:27:02.132Z,-0.70
2023-04-04T01:28:02.142Z,-0.77
2023-04-04T01:29:02.154Z,-0.75
2023-04-04T01:30:02.236Z,-0.78
2023-04-04T01:31:02.254Z,-0.85
2023-04-04T01:32:02.166Z,-0.69
2023-04-04T01:33:02.211Z,-0.80
2023-04-04T01:34:02.178Z,-0.82
2023-04-04T01:35:02.189Z,-0.84
2023-04-04T01:36:02.241Z,-0.80
2023-04-04T01:37:02.203Z,-0.91
2023-04-04T01:38:02.206Z,-0.89
2023-04-04T01:39:02.212Z,-0.89
2023-04-04T01:40:02.221Z,-0.84
2023-04-04T01:41:02.228Z,-0.93
2023-04-04T01:42:02.243Z,-0.94
2023-04-04T01:43:02.242Z,-0.89
2023-04-04T01:44:02.248Z,-0.93
2023-04-04T01:45:02.266Z,-0.96
2023-04-04T01:46:02.311Z,-1.00
2023-04-04T01:47:02.271Z,-1.11
2023-04-04T01:48:02.305Z,-1.09
2023-04-04T01:49:02.280Z,-0.99
2023-04-04T01:50:02.286Z,-1.15
2023-04-04T01:51:02.293Z,-1.06
2023-04-04T01:52:02.309Z,-1.12
2023-04-04T01:53:02.304Z,-1.09
2023-04-04T01:54:02.311Z,-1.14
2023-04-04T01:55:02.319Z,-1.27
2023-04-04T01:56:02.324Z,-1.27
2023-04-04T01:57:02.339Z,-1.17
2023-04-04T01:58:02.340Z,-1.04
2023-04-04T01:59:02.419Z,-1.22
2023-04-04T02:00:02.373Z,-1.17
2023-04-04T02:01:02.356Z,-1.18
2023-04-04T02:02:02.367Z,-1.17
2023-04-04T02:03:02.469Z,-1.24
2023-04-04T02:04:02.435Z,-1.29
2023-04-04T02:05:02.384Z,-1.30
2023-04-04T02:06:02.390Z,-1.24
2023-04-04T02:07:02.396Z,-1.25
2023-04-04T02:08:02.403Z,-1.33
2023-04-04T02:09:02.414Z,-1.27
2023-04-04T02:10:02.429Z,-1.27
2023-04-04T02:11:02.420Z,-1.30
2023-04-04T02:12:02.430Z,-1.32
2023-04-04T02:13:02.445Z,-1.36
2023-04-04T02:14:02.456Z,-1.24
2023-04-04T02:15:02.449Z,-1.35
2023-04-04T02:16:02.589Z,-1.33
2023-04-04T02:17:02.483Z,-1.32
2023-04-04T02:18:02.524Z,-1.35
2023-04-04T02:19:02.468Z,-1.33
2023-04-04T02:20:02.485Z,-1.35
2023-04-04T02:21:02.488Z,-1.36
2023-04-04T02:22:02.487Z,-1.39
2023-04-04T02:23:02.494Z,-1.36
2023-04-04T02:24:02.498Z,-1.39
2023-04-04T02:25:02.505Z,-1.42
2023-04-04T02:26:02.517Z,-1.48
2023-04-04T02:27:02.517Z,-1.43
2023-04-04T02:28:02.525Z,-1.45
2023-04-04T02:29:02.531Z,-1.40
2023-04-04T02:30:02.534Z,-1.45
2023-04-04T02:31:02.607Z,-1.45
2023-04-04T02:32:02.552Z,-1.51
2023-04-04T02:33:02.683Z,-1.51
2023-04-04T02:34:02.576Z,-1.54
2023-04-04T02:35:02.564Z,-1.61
2023-04-04T02:36:02.634Z,-1.58
2023-04-04T02:37:02.581Z,-1.63
2023-04-04T02:38:02.584Z,-1.66
2023-04-04T02:39:02.588Z,-1.61
2023-04-04T02:40:02.645Z,-1.66
2023-04-04T02:41:02.607Z,-1.68
2023-04-04T02:42:02.614Z,-1.75
2023-04-04T02:43:02.616Z,-1.72
2023-04-04T02:44:02.659Z,-1.79
2023-04-04T02:45:02.628Z,-1.82
2023-04-04T02:46:14.506Z,-1.76
2023-04-04T02:47:02.698Z,-1.66
2023-04-04T02:48:02.682Z,-1.72
2023-04-04T02:49:02.652Z,-1.76
2023-04-04T02:50:02.660Z,-1.81
2023-04-04T02:51:02.664Z,-1.82
2023-04-04T02:52:02.669Z,-1.89
2023-04-04T02:53:02.697Z,-1.79
2023-04-04T02:54:02.692Z,-1.87
2023-04-04T02:55:02.690Z,-1.78
2023-04-04T02:56:02.696Z,-1.81
2023-04-04T02:57:02.704Z,-1.81
2023-04-04T02:58:02.709Z,-1.72
2023-04-04T02:59:02.731Z,-1.66
2023-04-04T03:00:02.728Z,-1.76
2023-04-04T03:01:02.824Z,-1.68
2023-04-04T03:02:02.774Z,-1.68
2023-04-04T03:03:02.887Z,-1.66
2023-04-04T03:04:02.862Z,-1.64
2023-04-04T03:05:02.753Z,-1.63
2023-04-04T03:06:02.759Z,-1.64
2023-04-04T03:07:02.762Z,-1.63
2023-04-04T03:08:02.788Z,-1.69
2023-04-04T03:09:02.774Z,-1.68
2023-04-04T03:10:02.786Z,-1.63
2023-04-04T03:11:02.804Z,-1.66
2023-04-04T03:12:02.797Z,-1.64
2023-04-04T03:13:02.822Z,-1.64
2023-04-04T03:14:02.804Z,-1.68
2023-04-04T03:15:02.814Z,-1.64
2023-04-04T03:16:02.825Z,-1.63
2023-04-04T03:17:02.826Z,-1.51
2023-04-04T03:18:02.856Z,-1.61
2023-04-04T03:19:02.837Z,-1.56
2023-04-04T03:20:02.848Z,-1.63
2023-04-04T03:21:02.847Z,-1.64
2023-04-04T03:22:02.853Z,-1.63
2023-04-04T03:23:02.860Z,-1.63
2023-04-04T03:24:02.867Z,-1.61
2023-04-04T03:25:02.872Z,-1.68
2023-04-04T03:26:02.880Z,-1.63
2023-04-04T03:27:02.881Z,-1.61
2023-04-04T03:28:02.885Z,-1.66
2023-04-04T03:29:02.895Z,-1.69
2023-04-04T03:30:02.909Z,-1.63
2023-04-04T03:31:02.906Z,-1.69
2023-04-04T03:32:02.955Z,-1.64
2023-04-04T03:33:02.925Z,-1.74
2023-04-04T03:34:02.920Z,-1.74
2023-04-04T03:35:02.930Z,-1.75
2023-04-04T03:36:02.951Z,-1.71
2023-04-04T03:37:02.941Z,-1.66
2023-04-04T03:38:02.945Z,-1.68
2023-04-04T03:39:02.952Z,-1.71
2023-04-04T03:40:02.960Z,-1.69
2023-04-04T03:41:02.963Z,-1.69
2023-04-04T03:42:02.970Z,-1.66
2023-04-04T03:43:02.973Z,-1.68
2023-04-04T03:44:02.979Z,-1.69
2023-04-04T03:45:02.994Z,-1.69
2023-04-04T03:46:03.063Z,-1.68
2023-04-04T03:47:03.001Z,-1.76
2023-04-04T03:48:03.054Z,-1.71
2023-04-04T03:49:03.008Z,-1.69
2023-04-04T03:50:03.019Z,-1.72
2023-04-04T03:51:03.019Z,-1.69
2023-04-04T03:52:03.025Z,-1.66
2023-04-04T03:53:03.033Z,-1.76
2023-04-04T03:54:03.038Z,-1.76
2023-04-04T03:55:03.046Z,-1.68
2023-04-04T03:56:03.048Z,-1.66
2023-04-04T03:57:03.052Z,-1.66
2023-04-04T03:58:03.061Z,-1.81
2023-04-04T03:59:03.085Z,-1.69
2023-04-04T04:00:03.074Z,-1.78
2023-04-04T04:01:03.076Z,-1.76
2023-04-04T04:02:03.086Z,-1.68
2023-04-04T04:03:03.182Z,-1.76
2023-04-04T04:04:03.125Z,-1.64
2023-04-04T04:05:03.123Z,-1.75
2023-04-04T04:06:03.109Z,-1.81
2023-04-04T04:07:03.114Z,-1.68
2023-04-04T04:08:03.118Z,-1.84
2023-04-04T04:09:03.123Z,-1.76
2023-04-04T04:10:03.143Z,-1.72
2023-04-04T04:11:03.133Z,-1.76
2023-04-04T04:12:03.139Z,-1.79
2023-04-04T04:13:03.149Z,-1.69
2023-04-04T04:14:03.165Z,-1.69
2023-04-04T04:15:03.154Z,-1.78
2023-04-04T04:16:03.206Z,-1.87
2023-04-04T04:17:03.167Z,-1.76
2023-04-04T04:18:03.214Z,-1.79
2023-04-04T04:19:03.182Z,-1.78
2023-04-04T04:20:03.188Z,-1.84
2023-04-04T04:21:03.207Z,-1.74
2023-04-04T04:22:03.199Z,-1.75
2023-04-04T04:23:03.204Z,-1.79
2023-04-04T04:24:03.210Z,-1.75
2023-04-04T04:25:03.215Z,-1.81
2023-04-04T04:26:03.219Z,-1.82
2023-04-04T04:27:03.236Z,-1.86
2023-04-04T04:28:03.247Z,-1.81
2023-04-04T04:29:03.238Z,-1.84
2023-04-04T04:30:03.250Z,-1.89
2023-04-04T04:31:03.270Z,-1.84
2023-04-04T04:32:03.256Z,-1.81
2023-04-04T04:33:03.279Z,-1.84
2023-04-04T04:34:03.274Z,-1.84
2023-04-04T04:35:03.278Z,-1.84
2023-04-04T04:36:03.314Z,-1.82
2023-04-04T04:37:03.287Z,-1.84
2023-04-04T04:38:03.296Z,-1.84
2023-04-04T04:39:03.301Z,-1.87
2023-04-04T04:40:03.305Z,-1.82
2023-04-04T04:41:03.314Z,-1.78
2023-04-04T04:42:03.317Z,-1.82
2023-04-04T04:43:03.329Z,-1.86
2023-04-04T04:44:03.327Z,-1.79
2023-04-04T04:45:03.343Z,-1.87
2023-04-04T04:46:03.342Z,-1.84
2023-04-04T04:47:03.472Z,-1.86
2023-04-04T04:48:03.422Z,-1.84
2023-04-04T04:49:03.434Z,-1.89
2023-04-04T04:50:03.375Z,-1.82
2023-04-04T04:51:03.369Z,-1.86
2023-04-04T04:52:03.388Z,-1.92
2023-04-04T04:53:03.386Z,-1.87
2023-04-04T04:54:03.392Z,-1.86
2023-04-04T04:55:03.402Z,-1.81
2023-04-04T04:56:03.409Z,-1.87
2023-04-04T04:57:03.411Z,-1.78
2023-04-04T04:58:03.442Z,-1.79
2023-04-04T04:59:03.497Z,-1.84
2023-04-04T05:00:03.428Z,-1.82
2023-04-04T05:01:03.470Z,-1.84
2023-04-04T05:02:03.459Z,-1.79
2023-04-04T05:03:03.463Z,-1.79
2023-04-04T05:04:03.446Z,-1.87
2023-04-04T05:05:03.458Z,-1.92
2023-04-04T05:06:03.464Z,-1.82
2023-04-04T05:07:03.463Z,-1.86
2023-04-04T05:08:03.470Z,-1.82
2023-04-04T05:09:03.477Z,-1.81
2023-04-04T05:10:03.486Z,-1.81
2023-04-04T05:11:05.206Z,-1.79
2023-04-04T05:12:03.493Z,-1.81
2023-04-04T05:13:03.503Z,-1.84
2023-04-04T05:14:03.517Z,-1.86
2023-04-04T05:15:03.542Z,-1.82
2023-04-04T05:16:03.559Z,-1.78
2023-04-04T05:17:03.545Z,-1.69
2023-04-04T05:18:03.592Z,-1.74
2023-04-04T05:19:03.534Z,-1.69
2023-04-04T05:20:03.631Z,-1.68
2023-04-04T05:21:03.551Z,-1.66
2023-04-04T05:22:03.553Z,-1.63
2023-04-04T05:23:03.556Z,-1.66
2023-04-04T05:24:03.568Z,-1.64
2023-04-04T05:25:03.593Z,-1.68
2023-04-04T05:26:03.588Z,-1.63
2023-04-04T05:27:03.586Z,-1.63
2023-04-04T05:28:03.603Z,-1.66
2023-04-04T05:29:03.594Z,-1.58
2023-04-04T05:30:03.621Z,-1.57
2023-04-04T05:31:03.606Z,-1.58
2023-04-04T05:32:03.670Z,-1.57
2023-04-04T05:33:03.679Z,-1.53
2023-04-04T05:34:03.630Z,-1.45
2023-04-04T05:35:03.719Z,-1.45
2023-04-04T05:36:03.764Z,-1.51
2023-04-04T05:37:03.648Z,-1.42
2023-04-04T05:38:03.655Z,-1.36
2023-04-04T05:39:03.663Z,-1.39
2023-04-04T05:40:03.683Z,-1.33
2023-04-04T05:41:03.679Z,-1.38
2023-04-04T05:42:03.687Z,-1.27
2023-04-04T05:43:03.687Z,-1.24
2023-04-04T05:44:03.712Z,-1.29
2023-04-04T05:45:03.716Z,-1.25
2023-04-04T05:46:03.750Z,-1.30
2023-04-04T05:47:03.707Z,-1.25
2023-04-04T05:48:03.764Z,-1.21
2023-04-04T05:49:03.735Z,-1.19
2023-04-04T05:50:03.756Z,-1.19
2023-04-04T05:51:03.735Z,-1.15
2023-04-04T05:52:03.749Z,-1.19
2023-04-04T05:53:03.767Z,-1.14
2023-04-04T05:54:03.753Z,-1.19
2023-04-04T05:55:03.760Z,-1.24
2023-04-04T05:56:03.784Z,-1.25
2023-04-04T05:57:03.776Z,-1.11
2023-04-04T05:58:03.778Z,-0.99
2023-04-04T05:59:03.822Z,-1.03
2023-04-04T06:00:03.825Z,-1.04
2023-04-04T06:01:03.798Z,-1.01
2023-04-04T06:02:03.809Z,-1.06
2023-04-04T06:03:04.040Z,-1.01
2023-04-04T06:04:03.818Z,-1.00
2023-04-04T06:05:03.824Z,-0.93
2023-04-04T06:06:03.946Z,-0.93
2023-04-04T06:07:03.836Z,-0.89
2023-04-04T06:08:03.838Z,-0.84
2023-04-04T06:09:03.848Z,-0.72
2023-04-04T06:10:03.860Z,-0.81
2023-04-04T06:11:03.860Z,-0.81
2023-04-04T06:12:03.866Z,-0.72
2023-04-04T06:13:03.875Z,-0.70
2023-04-04T06:14:03.880Z,-0.67
2023-04-04T06:15:03.886Z,-0.63
2023-04-04T06:16:03.979Z,-0.54
2023-04-04T06:17:03.905Z,-0.62
2023-04-04T06:18:03.936Z,-0.54
2023-04-04T06:19:03.912Z,-0.48
2023-04-04T06:20:03.924Z,-0.42
2023-04-04T06:21:03.926Z,-0.59
2023-04-04T06:22:03.935Z,-0.38
2023-04-04T06:23:03.947Z,-0.39
2023-04-04T06:24:03.951Z,-0.38
2023-04-04T06:25:03.962Z,-0.31
2023-04-04T06:26:03.961Z,-0.35
2023-04-04T06:27:03.966Z,-0.28
2023-04-04T06:28:03.977Z,-0.36
2023-04-04T06:29:03.978Z,-0.38
2023-04-04T06:30:03.994Z,-0.27
2023-04-04T06:31:04.021Z,-0.27
2023-04-04T06:32:04.009Z,-0.26
2023-04-04T06:33:04.048Z,-0.21
2023-04-04T06:34:04.011Z,-0.17
2023-04-04T06:35:04.023Z,-0.24
2023-04-04T06:36:04.075Z,-0.23
2023-04-04T06:37:04.033Z,-0.07
2023-04-04T06:38:04.077Z,-0.07
2023-04-04T06:39:04.051Z,-0.13
2023-04-04T06:40:04.055Z,-0.12
2023-04-04T06:41:04.063Z,-0.02
2023-04-04T06:42:04.079Z,-0.02
2023-04-04T06:43:04.079Z,0.08
2023-04-04T06:44:04.088Z,0.00
2023-04-04T06:45:04.092Z,-0.05
2023-04-04T06:46:04.097Z,0.08
2023-04-04T06:47:04.139Z,0.16
2023-04-04T06:48:04.124Z,0.15
2023-04-04T06:49:04.117Z,0.19
2023-04-04T06:50:04.122Z,0.20
2023-04-04T06:51:04.131Z,0.23
2023-04-04T06:52:04.146Z,0.27
2023-04-04T06:53:04.171Z,0.31
2023-04-04T06:54:04.152Z,0.29
2023-04-04T06:55:04.158Z,0.34
2023-04-04T06:56:04.169Z,0.30
2023-04-04T06:57:04.175Z,0.40
2023-04-04T06:58:04.179Z,0.37
2023-04-04T06:59:04.256Z,0.42
2023-04-04T07:00:04.199Z,0.47
2023-04-04T07:01:04.233Z,0.56
2023-04-04T07:02:04.293Z,0.70
2023-04-04T07:03:04.285Z,1.00
2023-04-04T07:04:04.235Z,1.25
2023-04-04T07:05:04.248Z,1.49
2023-04-04T07:06:04.243Z,1.66
2023-04-04T07:07:04.250Z,1.81
2023-04-04T07:08:04.255Z,2.10
2023-04-04T07:09:04.297Z,2.12
2023-04-04T07:10:04.289Z,2.37
2023-04-04T07:11:04.284Z,2.41
2023-04-04T07:12:04.293Z,2.51
2023-04-04T07:13:04.304Z,2.52
2023-04-04T07:14:04.309Z,2.65
2023-04-04T07:15:04.316Z,2.70
2023-04-04T07:16:04.346Z,2.83
2023-04-04T07:17:13.678Z,2.82
2023-04-04T07:18:04.403Z,3.06
2023-04-04T07:19:04.356Z,3.08
2023-04-04T07:20:04.872Z,3.13
2023-04-04T07:21:04.381Z,3.21
2023-04-04T07:22:04.379Z,3.16
2023-04-04T07:23:04.390Z,3.16
2023-04-04T07:24:04.404Z,3.27
2023-04-04T07:25:04.408Z,3.40
2023-04-04T07:26:04.431Z,3.37
2023-04-04T07:27:04.423Z,3.52
2023-04-04T07:28:12.373Z,3.49
2023-04-04T07:29:04.442Z,3.61
2023-04-04T07:30:04.478Z,3.76
2023-04-04T07:31:04.464Z,3.84
2023-04-04T07:32:04.525Z,4.04
2023-04-04T07:33:04.510Z,4.18
2023-04-04T07:34:04.500Z,4.18
2023-04-04T07:35:04.506Z,4.27
2023-04-04T07:36:04.562Z,4.30
2023-04-04T07:37:04.522Z,4.43
2023-04-04T07:38:04.547Z,4.63
2023-04-04T07:39:04.542Z,4.71
2023-04-04T07:40:04.551Z,4.86
2023-04-04T07:41:04.568Z,4.86
2023-04-04T07:42:04.572Z,4.86
2023-04-04T07:43:04.584Z,4.87
2023-04-04T07:44:04.590Z,4.98
2023-04-04T07:45:04.605Z,5.26
2023-04-04T07:46:04.644Z,5.34
2023-04-04T07:47:09.905Z,5.41
2023-04-04T07:48:04.700Z,5.62
2023-04-04T07:49:04.646Z,5.59
2023-04-04T07:50:04.657Z,5.67
2023-04-04T07:51:04.667Z,5.72
2023-04-04T07:52:04.681Z,5.80
2023-04-04T07:53:04.688Z,5.87
2023-04-04T07:54:04.697Z,5.90
2023-04-04T07:55:04.725Z,5.83
2023-04-04T07:56:04.718Z,5.64
2023-04-04T07:57:04.736Z,5.54
2023-04-04T07:58:04.747Z,5.29
2023-04-04T07:59:04.804Z,5.16
2023-04-04T08:00:04.770Z,4.98
2023-04-04T08:01:04.812Z,4.84
2023-04-04T08:02:04.810Z,4.58
2023-04-04T08:03:04.901Z,4.49
2023-04-04T08:04:04.904Z,4.31
2023-04-04T08:05:04.822Z,4.25
2023-04-04T08:06:04.831Z,4.20
2023-04-04T08:07:04.861Z,4.02
2023-04-04T08:08:04.866Z,4.00
2023-04-04T08:09:04.868Z,3.95
2023-04-04T08:10:04.881Z,3.88
2023-04-04T08:11:04.878Z,3.77
2023-04-04T08:12:04.891Z,3.63
2023-04-04T08:13:04.902Z,3.50
2023-04-04T08:14:04.915Z,3.48
2023-04-04T08:15:04.921Z,3.46
2023-04-04T08:16:05.000Z,3.43
2023-04-04T08:17:04.940Z,3.40
2023-04-04T08:18:04.984Z,3.34
2023-04-04T08:19:04.962Z,3.31
2023-04-04T08:20:04.972Z,3.31
2023-04-04T08:21:04.981Z,3.19
2023-04-04T08:22:04.993Z,3.26
2023-04-04T08:23:05.001Z,3.22
2023-04-04T08:24:05.021Z,3.18
2023-04-04T08:25:05.016Z,3.16
2023-04-04T08:26:05.026Z,3.16
2023-04-04T08:27:05.865Z,3.11
2023-04-04T08:28:05.076Z,3.15
2023-04-04T08:29:05.060Z,3.15
2023-04-04T08:30:05.075Z,3.12
2023-04-04T08:31:05.147Z,3.15
2023-04-04T08:32:05.083Z,3.16
2023-04-04T08:33:06.406Z,3.15
2023-04-04T08:34:05.099Z,3.11
2023-04-04T08:35:05.108Z,3.13
2023-04-04T08:36:05.141Z,3.24
2023-04-04T08:37:05.128Z,3.15
2023-04-04T08:38:05.136Z,3.19
2023-04-04T08:39:05.146Z,3.22
2023-04-04T08:40:05.168Z,3.26
2023-04-04T08:41:05.164Z,3.22
2023-04-04T08:42:05.177Z,3.29
2023-04-04T08:43:05.184Z,3.21
2023-04-04T08:44:05.206Z,3.27
2023-04-04T08:45:05.203Z,3.22
2023-04-04T08:46:05.236Z,3.30
2023-04-04T08:47:05.378Z,3.27
2023-04-04T08:48:05.296Z,3.31
2023-04-04T08:49:05.258Z,3.31
2023-04-04T08:50:05.262Z,3.30
2023-04-04T08:51:05.276Z,3.31
2023-04-04T08:52:05.273Z,3.29
2023-04-04T08:53:05.284Z,3.33
2023-04-04T08:54:05.327Z,3.40
2023-04-04T08:55:05.318Z,3.36
2023-04-04T08:56:05.317Z,3.46
2023-04-04T08:57:05.321Z,3.46
2023-04-04T08:58:05.343Z,3.53
2023-04-04T08:59:05.468Z,3.50
2023-04-04T09:00:05.504Z,3.49
2023-04-04T09:01:05.386Z,3.49
2023-04-04T09:02:05.407Z,3.52
2023-04-04T09:03:05.527Z,3.49
2023-04-04T09:04:05.390Z,3.59
2023-04-04T09:05:07.156Z,3.45
2023-04-04T09:06:05.412Z,3.50
2023-04-04T09:07:05.415Z,3.52
2023-04-04T09:08:05.434Z,3.59
2023-04-04T09:09:05.511Z,3.59
2023-04-04T09:10:05.461Z,3.58
2023-04-04T09:11:05.459Z,3.66
2023-04-04T09:12:05.468Z,3.70
2023-04-04T09:13:14.728Z,3.70
2023-04-04T09:14:05.496Z,3.76
2023-04-04T09:15:05.516Z,3.77
2023-04-04T09:16:05.544Z,3.77
2023-04-04T09:17:05.527Z,3.78
2023-04-04T09:18:05.584Z,3.84
2023-04-04T09:19:05.536Z,3.86
2023-04-04T09:20:05.551Z,3.86
2023-04-04T09:21:05.561Z,4.03
2023-04-04T09:22:05.562Z,4.06
2023-04-04T09:23:05.573Z,4.10
2023-04-04T09:24:05.581Z,4.22
2023-04-04T09:25:05.593Z,4.20
2023-04-04T09:26:05.600Z,4.24
2023-04-04T09:27:05.611Z,4.34
2023-04-04T09:28:05.625Z,4.24
2023-04-04T09:29:05.634Z,4.27
2023-04-04T09:30:05.896Z,4.31
2023-04-04T09:31:05.960Z,4.50
2023-04-04T09:32:05.716Z,4.49
2023-04-04T09:33:05.775Z,4.49
2023-04-04T09:34:05.685Z,4.58
2023-04-04T09:35:05.692Z,4.60
2023-04-04T09:36:05.735Z,4.66
2023-04-04T09:37:05.713Z,4.60
2023-04-04T09:38:05.724Z,4.71
2023-04-04T09:39:05.733Z,4.78
2023-04-04T09:40:05.777Z,4.75
2023-04-04T09:41:05.879Z,4.83
2023-04-04T09:42:05.769Z,4.89
2023-04-04T09:43:05.780Z,4.89
2023-04-04T09:44:05.795Z,4.90
2023-04-04T09:45:05.799Z,4.90
2023-04-04T09:46:05.834Z,4.92
2023-04-04T09:47:05.829Z,5.00
2023-04-04T09:48:05.891Z,4.94
2023-04-04T09:49:05.854Z,5.08
2023-04-04T09:50:05.856Z,5.16
2023-04-04T09:51:05.871Z,5.25
2023-04-04T09:52:05.877Z,5.25
2023-04-04T09:53:05.893Z,5.25
2023-04-04T09:54:06.502Z,5.36
2023-04-04T09:55:05.915Z,5.40
2023-04-04T09:56:05.940Z,5.46
2023-04-04T09:57:05.934Z,5.56
2023-04-04T09:58:05.952Z,5.55
2023-04-04T09:59:06.036Z,5.64
2023-04-04T10:00:05.972Z,5.65
2023-04-04T10:01:06.003Z,5.67
2023-04-04T10:02:05.991Z,5.67
2023-04-04T10:03:06.048Z,5.67
2023-04-04T10:04:06.037Z,5.79
2023-04-04T10:05:06.552Z,5.81
2023-04-04T10:06:07.433Z,5.87
2023-04-04T10:07:06.052Z,5.90
2023-04-04T10:08:06.130Z,5.95
2023-04-04T10:09:06.091Z,6.01
2023-04-04T10:10:06.123Z,6.05
2023-04-04T10:12:06.108Z,6.12
2023-04-04T10:13:06.124Z,6.28
2023-04-04T10:14:06.132Z,6.31
2023-04-04T10:15:06.145Z,6.36
2023-04-04T10:16:06.199Z,6.34
2023-04-04T10:17:06.689Z,6.39
2023-04-04T10:18:06.187Z,6.29
2023-04-04T10:19:06.209Z,6.36
2023-04-04T10:20:06.212Z,6.29
2023-04-04T10:21:15.256Z,6.28
2023-04-04T10:22:06.235Z,6.28
2023-04-04T10:23:06.245Z,6.25
2023-04-04T10:24:06.262Z,6.22
2023-04-04T10:25:06.270Z,6.16
2023-04-04T10:26:06.284Z,6.22
2023-04-04T10:27:06.294Z,6.17
2023-04-04T10:28:06.308Z,6.29
2023-04-04T10:29:06.552Z,6.34
2023-04-04T10:30:06.339Z,6.31
2023-04-04T10:31:07.125Z,6.28
2023-04-04T10:32:06.430Z,6.39
2023-04-04T10:33:06.414Z,6.47
2023-04-04T10:34:06.394Z,6.64
2023-04-04T10:35:06.404Z,6.80
2023-04-04T10:36:06.440Z,6.85
2023-04-04T10:37:06.434Z,6.95
2023-04-04T10:38:06.430Z,7.03
2023-04-04T10:39:06.443Z,7.18
2023-04-04T10:40:06.456Z,7.11
2023-04-04T10:41:06.471Z,7.19
2023-04-04T10:42:06.492Z,7.14
2023-04-04T10:43:06.496Z,7.13
2023-04-04T10:44:06.540Z,7.23
2023-04-04T10:45:19.776Z,7.21
2023-04-04T10:46:06.573Z,7.13
2023-04-04T10:47:06.553Z,7.26
2023-04-04T10:48:08.849Z,7.25
2023-04-04T10:49:06.579Z,7.29
2023-04-04T10:50:06.615Z,7.31
2023-04-04T10:51:06.604Z,7.33
2023-04-04T10:52:06.618Z,7.25
2023-04-04T10:53:06.635Z,7.28
2023-04-04T10:54:06.647Z,7.22
2023-04-04T10:55:06.658Z,7.28
2023-04-04T10:56:06.672Z,7.29
2023-04-04T10:57:06.704Z,7.48
2023-04-04T10:58:06.707Z,7.62
2023-04-04T10:59:06.745Z,7.78
2023-04-04T11:00:06.791Z,7.75
2023-04-04T11:01:06.811Z,7.91
2023-04-04T11:02:06.785Z,8.06
2023-04-04T11:03:06.793Z,8.09
2023-04-04T11:04:06.831Z,8.21
2023-04-04T11:05:06.811Z,8.35
2023-04-04T11:06:06.830Z,8.57
2023-04-04T11:07:06.849Z,8.66
2023-04-04T11:08:08.817Z,8.77
2023-04-04T11:09:06.884Z,8.84
2023-04-04T11:10:06.900Z,8.84
2023-04-04T11:11:12.901Z,8.96
2023-04-04T11:12:06.940Z,9.19
2023-04-04T11:13:12.801Z,9.19
2023-04-04T11:14:06.982Z,9.19
2023-04-04T11:15:06.995Z,9.19
2023-04-04T11:16:07.030Z,9.19
2023-04-04T11:17:07.033Z,9.18
2023-04-04T11:18:21.464Z,9.08
2023-04-04T11:19:07.071Z,8.97
2023-04-04T11:20:07.089Z,8.86
2023-04-04T11:21:07.112Z,8.75
2023-04-04T11:22:07.130Z,8.77
2023-04-04T11:23:07.139Z,8.72
2023-04-04T11:24:07.160Z,8.60
2023-04-04T11:25:07.176Z,8.60
2023-04-04T11:26:07.206Z,8.56
2023-04-04T11:27:07.211Z,8.50
2023-04-04T11:28:07.241Z,8.49
2023-04-04T11:29:07.243Z,8.64
2023-04-04T11:30:07.530Z,8.56
2023-04-04T11:31:07.276Z,8.68
2023-04-04T11:32:07.334Z,8.60
2023-04-04T11:33:08.345Z,8.53
2023-04-04T11:34:07.340Z,8.60
2023-04-04T11:35:07.353Z,8.53
2023-04-04T11:36:08.520Z,8.56
2023-04-04T11:37:07.385Z,8.49
2023-04-04T11:38:07.389Z,8.46
2023-04-04T11:39:07.425Z,8.41
2023-04-04T11:40:07.443Z,8.42
2023-04-04T11:41:07.436Z,8.28
2023-04-04T11:42:07.451Z,8.23
2023-04-04T11:43:07.473Z,8.23
2023-04-04T11:44:07.486Z,8.35
2023-04-04T11:45:07.494Z,8.86
2023-04-04T11:46:07.531Z,8.95
2023-04-04T11:47:07.524Z,9.19
2023-04-04T11:48:07.543Z,9.51
2023-04-04T11:49:07.568Z,9.81
2023-04-04T11:50:07.576Z,9.99
2023-04-04T11:51:07.596Z,10.12
2023-04-04T11:52:07.607Z,10.10
2023-04-04T11:53:07.634Z,10.25
2023-04-04T11:54:07.648Z,10.17
2023-04-04T11:55:07.668Z,10.10
2023-04-04T11:56:07.686Z,10.02
2023-04-04T11:57:07.708Z,9.99
2023-04-04T11:58:08.180Z,9.97
2023-04-04T11:59:11.593Z,9.92
2023-04-04T12:00:07.762Z,9.85
2023-04-04T12:01:07.774Z,9.82
2023-04-04T12:02:07.878Z,9.77
2023-04-04T12:03:07.862Z,9.73
2023-04-04T12:04:07.843Z,9.77
2023-04-04T12:05:07.919Z,9.74
2023-04-04T12:06:07.899Z,9.69
2023-04-04T12:07:07.886Z,9.63
2023-04-04T12:08:07.904Z,9.62
2023-04-04T12:09:07.920Z,9.58
2023-04-04T12:10:07.939Z,9.66
2023-04-04T12:11:07.955Z,9.49
2023-04-04T12:12:07.970Z,9.48
2023-04-04T12:13:07.987Z,9.47
2023-04-04T12:14:08.004Z,9.51
2023-04-04T12:15:17.011Z,9.58
2023-04-04T12:16:08.057Z,9.56
2023-04-04T12:17:08.064Z,9.63
2023-04-04T12:18:08.155Z,9.64
2023-04-04T12:19:08.089Z,9.58
2023-04-04T12:20:08.107Z,9.67
2023-04-04T12:21:08.121Z,9.56
2023-04-04T12:22:08.201Z,9.69
2023-04-04T12:23:08.169Z,9.63
2023-04-04T12:24:08.172Z,9.54
2023-04-04T12:25:08.187Z,9.52
2023-04-04T12:26:08.206Z,9.48
2023-04-04T12:27:08.220Z,9.31
2023-04-04T12:28:08.240Z,9.31
2023-04-04T12:29:08.267Z,9.34
2023-04-04T12:30:08.265Z,9.36
2023-04-04T12:31:08.328Z,9.36
2023-04-04T12:32:08.302Z,9.36
2023-04-04T12:33:08.369Z,9.31
2023-04-04T12:34:08.335Z,9.44
2023-04-04T12:35:08.373Z,9.33
2023-04-04T12:36:08.422Z,9.34
2023-04-04T12:37:08.379Z,9.33
2023-04-04T12:38:08.547Z,9.36
2023-04-04T12:39:08.435Z,9.33
2023-04-04T12:40:08.429Z,9.26
2023-04-04T12:41:08.435Z,9.29
2023-04-04T12:42:08.455Z,9.29
2023-04-04T12:43:08.655Z,9.29
2023-04-04T12:44:08.479Z,9.26
2023-04-04T12:45:08.498Z,9.27
2023-04-04T12:46:08.514Z,9.29
2023-04-04T12:47:08.692Z,9.24
2023-04-04T12:48:08.588Z,9.26
2023-04-04T12:49:08.559Z,9.16
2023-04-04T12:50:08.577Z,9.13
2023-04-04T12:51:08.606Z,9.12
2023-04-04T12:52:08.609Z,9.11
2023-04-04T12:53:27.367Z,9.11
2023-04-04T12:54:08.633Z,9.09
2023-04-04T12:55:08.865Z,9.05
2023-04-04T12:56:08.672Z,9.08
2023-04-04T12:57:08.686Z,9.03
2023-04-04T12:58:08.710Z,9.00
2023-04-04T12:59:08.758Z,8.97
2023-04-04T13:00:08.932Z,8.99
2023-04-04T13:01:08.764Z,9.00
2023-04-04T13:02:08.756Z,8.97
2023-04-04T13:03:08.800Z,8.99
2023-04-04T13:04:08.841Z,8.86
2023-04-04T13:05:08.816Z,8.87